createdAt,value
2022-11-18T00:01:22.644Z,6.60
2022-11-18T00:03:51.925Z,6.60
2022-11-18T00:06:21.625Z,6.70
2022-11-18T00:08:49.967Z,6.60
2022-11-18T00:11:36.757Z,6.70
2022-11-18T00:14:21.129Z,6.60
2022-11-18T00:16:51.850Z,6.60
2022-11-18T00:19:22.052Z,6.60
2022-11-18T00:21:50.779Z,6.60
2022-11-18T00:24:19.477Z,6.60
2022-11-18T00:26:49.256Z,6.60
2022-11-18T00:29:17.954Z,6.60
2022-11-18T00:31:46.504Z,6.70
2022-11-18T00:34:16.652Z,6.60
2022-11-18T00:36:45.701Z,6.30
2022-11-18T00:39:17.002Z,6.30
2022-11-18T00:42:03.621Z,6.30
2022-11-18T00:44:34.186Z,6.30
2022-11-18T00:47:02.409Z,5.90
2022-11-18T00:49:30.747Z,5.80
2022-11-18T00:51:59.053Z,5.80
2022-11-18T00:54:27.189Z,5.90
2022-11-18T00:56:55.332Z,5.70
2022-11-18T00:59:23.565Z,5.60
2022-11-18T01:01:53.756Z,5.50
2022-11-18T01:04:22.068Z,5.60
2022-11-18T01:06:50.381Z,5.70
2022-11-18T01:09:19.028Z,5.80
2022-11-18T01:12:05.018Z,5.90
2022-11-18T01:14:34.029Z,6.00
2022-11-18T01:17:03.604Z,5.90
2022-11-18T01:19:32.152Z,5.90
2022-11-18T01:22:03.309Z,5.80
2022-11-18T01:24:32.220Z,5.80
2022-11-18T01:27:00.870Z,5.80
2022-11-18T01:29:32.129Z,5.70
2022-11-18T01:34:50.512Z,5.70
2022-11-18T01:37:19.582Z,5.50
2022-11-18T01:39:47.772Z,5.50
2022-11-18T01:42:18.200Z,5.60
2022-11-18T01:45:02.191Z,5.70
2022-11-18T01:47:35.187Z,5.80
2022-11-18T01:50:07.957Z,5.80
2022-11-18T01:52:37.984Z,5.50
2022-11-18T01:55:12.206Z,5.50
2022-11-18T01:57:41.983Z,5.50
2022-11-18T02:00:11.614Z,5.50
2022-11-18T02:02:41.296Z,5.70
2022-11-18T02:05:12.766Z,5.60
2022-11-18T02:07:44.357Z,5.70
2022-11-18T02:10:20.849Z,5.60
2022-11-18T02:12:51.428Z,5.60
2022-11-18T02:15:24.953Z,5.60
2022-11-18T02:18:00.381Z,5.60
2022-11-18T02:20:34.313Z,5.70
2022-11-18T02:23:29.116Z,5.60
2022-11-18T02:26:27.782Z,5.70
2022-11-18T02:29:05.675Z,5.90
2022-11-18T02:31:40.849Z,6.00
2022-11-18T02:34:16.786Z,6.10
2022-11-18T02:36:51.896Z,6.00
2022-11-18T02:39:25.082Z,5.90
2022-11-18T02:41:57.849Z,6.10
2022-11-18T02:44:30.796Z,6.10
2022-11-18T02:47:09.593Z,6.20
2022-11-18T02:49:41.558Z,6.30
2022-11-18T02:52:12.959Z,6.30
2022-11-18T02:54:44.352Z,6.20
2022-11-18T02:57:13.179Z,6.20
2022-11-18T02:59:43.646Z,6.20
2022-11-18T03:02:16.932Z,6.40
2022-11-18T03:04:47.466Z,6.20
2022-11-18T03:07:22.319Z,6.10
2022-11-18T03:09:53.691Z,6.10
2022-11-18T03:12:30.218Z,6.20
2022-11-18T03:15:08.660Z,6.10
2022-11-18T03:17:47.108Z,6.00
2022-11-18T03:20:22.847Z,6.10
2022-11-18T03:22:57.290Z,6.10
2022-11-18T03:25:30.531Z,6.00
2022-11-18T03:28:08.625Z,6.00
2022-11-18T03:30:43.685Z,6.20
2022-11-18T03:33:16.969Z,6.40
2022-11-18T03:35:48.873Z,6.50
2022-11-18T03:38:20.329Z,6.50
2022-11-18T03:40:53.520Z,6.50
2022-11-18T03:43:27.669Z,6.60
2022-11-18T03:46:03.806Z,6.50
2022-11-18T03:48:36.468Z,6.60
2022-11-18T03:51:09.115Z,6.40
2022-11-18T03:53:42.934Z,6.40
2022-11-18T03:56:17.365Z,6.50
2022-11-18T03:58:51.068Z,6.60
2022-11-18T04:01:26.808Z,6.70
2022-11-18T04:03:55.233Z,6.60
2022-11-18T04:06:29.857Z,6.60
2022-11-18T04:09:04.355Z,6.60
2022-11-18T04:11:55.209Z,6.50
2022-11-18T04:14:23.535Z,6.40
2022-11-18T04:16:54.136Z,6.40
2022-11-18T04:19:22.850Z,6.40
2022-11-18T04:21:52.450Z,6.40
2022-11-18T04:24:20.627Z,6.40
2022-11-18T04:26:49.721Z,6.60
2022-11-18T04:29:18.199Z,6.60
2022-11-18T04:31:47.684Z,6.60
2022-11-18T04:34:17.813Z,6.60
2022-11-18T04:36:46.363Z,6.70
2022-11-18T04:39:15.429Z,6.60
2022-11-18T04:41:59.077Z,6.60
2022-11-18T04:44:28.530Z,6.50
2022-11-18T04:46:58.015Z,6.60
2022-11-18T04:49:28.640Z,6.50
2022-11-18T04:51:58.052Z,6.50
2022-11-18T04:54:27.689Z,6.50
2022-11-18T04:56:57.063Z,6.40
2022-11-18T04:59:27.671Z,6.50
2022-11-18T05:01:57.348Z,6.60
2022-11-18T05:04:28.519Z,6.70
2022-11-18T05:06:57.345Z,6.60
2022-11-18T05:09:31.363Z,6.50
2022-11-18T05:12:17.807Z,6.40
2022-11-18T05:14:50.068Z,6.40
2022-11-18T05:17:20.701Z,6.50
2022-11-18T05:19:50.251Z,6.60
2022-11-18T05:22:18.649Z,6.80
2022-11-18T05:24:46.860Z,6.80
2022-11-18T05:27:16.756Z,6.70
2022-11-18T05:29:45.313Z,6.70
2022-11-18T05:32:13.793Z,6.70
2022-11-18T05:34:42.868Z,6.70
2022-11-18T05:37:12.555Z,6.60
2022-11-18T05:39:40.767Z,6.60
2022-11-18T05:42:26.504Z,6.70
2022-11-18T05:44:58.501Z,6.80
2022-11-18T05:47:27.933Z,6.80
2022-11-18T05:49:56.449Z,6.80
2022-11-18T05:52:26.004Z,6.80
2022-11-18T05:54:54.288Z,6.80
2022-11-18T05:57:23.090Z,6.70
2022-11-18T05:59:51.292Z,6.80
2022-11-18T06:02:24.414Z,6.80
2022-11-18T06:04:58.291Z,6.80
2022-11-18T06:07:31.833Z,6.80
2022-11-18T06:10:05.546Z,6.80
2022-11-18T06:12:42.459Z,6.80
2022-11-18T06:15:17.037Z,6.70
2022-11-18T06:17:50.305Z,6.70
2022-11-18T06:20:20.806Z,6.70
2022-11-18T06:22:57.691Z,6.80
2022-11-18T06:25:26.263Z,6.70
2022-11-18T06:27:58.309Z,6.60
2022-11-18T06:30:26.475Z,6.60
2022-11-18T06:32:54.750Z,6.60
2022-11-18T06:35:23.294Z,6.60
2022-11-18T06:37:52.845Z,6.70
2022-11-18T06:40:22.052Z,6.70
2022-11-18T06:43:08.141Z,6.70
2022-11-18T06:45:37.226Z,6.70
2022-11-18T06:48:05.700Z,6.80
2022-11-18T06:50:34.313Z,6.80
2022-11-18T06:53:04.092Z,6.70
2022-11-18T06:55:32.230Z,6.70
2022-11-18T06:58:00.402Z,6.70
2022-11-18T07:00:28.536Z,6.70
2022-11-18T07:02:57.053Z,6.70
2022-11-18T07:05:25.288Z,6.80
2022-11-18T07:07:54.351Z,6.70
2022-11-18T07:10:24.417Z,6.60
2022-11-18T07:12:52.524Z,6.60
2022-11-18T07:15:20.923Z,6.60
2022-11-18T07:17:49.093Z,6.70
2022-11-18T07:20:17.705Z,6.60
2022-11-18T07:22:45.998Z,6.60
2022-11-18T07:25:14.516Z,6.60
2022-11-18T07:27:44.161Z,6.60
2022-11-18T07:30:13.625Z,6.60
2022-11-18T07:32:41.851Z,6.60
2022-11-18T07:35:10.808Z,6.70
2022-11-18T07:37:39.000Z,6.60
2022-11-18T07:40:08.720Z,6.60
2022-11-18T07:42:42.711Z,6.60
2022-11-18T07:45:13.816Z,6.60
2022-11-18T07:47:43.460Z,6.60
2022-11-18T07:50:11.699Z,6.60
2022-11-18T07:52:40.539Z,6.60
2022-11-18T07:55:09.520Z,6.50
2022-11-18T07:57:38.447Z,6.50
2022-11-18T08:00:07.896Z,6.40
2022-11-18T08:02:37.496Z,6.20
2022-11-18T08:05:06.440Z,6.20
2022-11-18T08:07:34.824Z,6.20
2022-11-18T08:10:03.653Z,6.20
2022-11-18T08:12:32.724Z,6.00
2022-11-18T08:15:00.896Z,6.10
2022-11-18T08:17:29.268Z,6.10
2022-11-18T08:19:59.387Z,6.10
2022-11-18T08:22:27.917Z,6.10
2022-11-18T08:24:57.016Z,6.10
2022-11-18T08:27:25.396Z,6.20
2022-11-18T08:29:54.419Z,6.20
2022-11-18T08:32:22.686Z,6.30
2022-11-18T08:34:51.920Z,6.30
2022-11-18T08:37:21.999Z,6.30
2022-11-18T08:39:50.942Z,6.20
2022-11-18T08:42:24.329Z,6.40
2022-11-18T08:44:53.181Z,6.50
2022-11-18T08:47:21.402Z,6.50
2022-11-18T08:49:50.433Z,6.40
2022-11-18T08:52:18.959Z,6.20
2022-11-18T08:54:48.535Z,6.20
2022-11-18T08:57:17.757Z,6.20
2022-11-18T08:59:47.288Z,6.30
2022-11-18T09:02:16.839Z,6.40
2022-11-18T09:04:45.091Z,6.40
2022-11-18T09:07:14.086Z,6.40
2022-11-18T09:09:42.334Z,6.40
2022-11-18T09:12:14.923Z,6.40
2022-11-18T09:15:12.962Z,6.30
2022-11-18T09:17:35.279Z,6.40
2022-11-18T09:20:03.705Z,6.20
2022-11-18T09:22:31.933Z,6.20
2022-11-18T09:25:00.461Z,6.30
2022-11-18T09:27:31.108Z,6.30
2022-11-18T09:30:00.319Z,6.30
2022-11-18T09:32:28.666Z,6.20
2022-11-18T09:34:56.817Z,6.30
2022-11-18T09:37:25.119Z,6.10
2022-11-18T09:39:53.414Z,6.00
2022-11-18T09:42:47.437Z,6.00
2022-11-18T09:45:25.202Z,6.00
2022-11-18T09:47:58.798Z,6.00
2022-11-18T09:50:49.537Z,6.00
2022-11-18T09:53:20.648Z,6.00
2022-11-18T09:55:50.135Z,6.10
2022-11-18T09:58:24.214Z,6.10
2022-11-18T10:00:52.748Z,6.20
2022-11-18T10:03:29.556Z,6.20
2022-11-18T10:06:03.840Z,6.10
2022-11-18T10:08:37.975Z,6.00
2022-11-18T10:11:12.737Z,5.90
2022-11-18T10:13:54.241Z,5.90
2022-11-18T10:16:33.960Z,6.10
2022-11-18T10:19:12.897Z,6.10
2022-11-18T10:21:56.489Z,6.10
2022-11-18T10:24:27.826Z,6.00
2022-11-18T10:27:00.912Z,5.90
2022-11-18T10:29:30.558Z,5.90
2022-11-18T10:32:04.597Z,5.80
2022-11-18T10:34:33.594Z,5.80
2022-11-18T10:37:04.057Z,5.80
2022-11-18T10:39:34.944Z,5.90
2022-11-18T10:42:06.838Z,5.90
2022-11-18T10:44:41.629Z,6.00
2022-11-18T10:47:28.807Z,6.10
2022-11-18T10:49:59.494Z,6.00
2022-11-18T10:52:29.861Z,6.10
2022-11-18T10:55:23.670Z,6.00
2022-11-18T10:57:59.287Z,6.10
2022-11-18T11:00:47.596Z,6.00
2022-11-18T11:03:28.332Z,6.10
2022-11-18T11:06:31.105Z,6.20
2022-11-18T11:09:01.981Z,6.20
2022-11-18T11:11:32.256Z,6.20
2022-11-18T11:14:14.757Z,6.20
2022-11-18T11:16:49.779Z,6.00
2022-11-18T11:19:22.942Z,5.90
2022-11-18T11:21:51.877Z,5.90
2022-11-18T11:24:21.031Z,5.80
2022-11-18T11:30:04.479Z,5.90
2022-11-18T11:32:59.085Z,5.80
2022-11-18T11:35:31.311Z,5.70
2022-11-18T11:38:01.344Z,5.70
2022-11-18T11:40:34.761Z,5.70
2022-11-18T11:43:24.266Z,5.70
2022-11-18T11:46:17.861Z,5.60
2022-11-18T11:48:58.924Z,5.60
2022-11-18T11:51:36.202Z,5.60
2022-11-18T11:54:16.899Z,5.50
2022-11-18T11:56:50.556Z,5.60
2022-11-18T11:59:28.748Z,5.40
2022-11-18T12:02:08.441Z,5.20
2022-11-18T12:04:44.848Z,5.40
2022-11-18T12:07:19.637Z,5.30
2022-11-18T12:10:24.905Z,5.40
2022-11-18T12:13:02.285Z,5.40
2022-11-18T12:15:44.642Z,5.30
2022-11-18T12:18:21.077Z,5.20
2022-11-18T12:20:52.495Z,5.00
2022-11-18T12:23:22.994Z,5.00
2022-11-18T12:26:06.400Z,5.10
2022-11-18T12:28:38.847Z,5.00
2022-11-18T12:31:43.440Z,5.00
2022-11-18T12:34:32.296Z,5.00
2022-11-18T12:37:39.985Z,4.90
2022-11-18T12:40:10.965Z,4.90
2022-11-18T12:43:04.210Z,4.70
2022-11-18T12:46:00.555Z,4.80
2022-11-18T12:48:35.711Z,4.80
2022-11-18T12:51:49.524Z,4.90
2022-11-18T12:54:32.455Z,4.90
2022-11-18T12:57:04.221Z,4.80
2022-11-18T12:59:39.031Z,4.80
2022-11-18T13:02:21.534Z,4.80
2022-11-18T13:05:07.852Z,4.70
2022-11-18T13:08:01.668Z,4.60
2022-11-18T13:10:33.999Z,4.50
2022-11-18T13:13:06.377Z,4.50
2022-11-18T13:15:52.731Z,4.50
2022-11-18T13:18:22.244Z,4.50
2022-11-18T13:21:20.815Z,4.60
2022-11-18T13:24:00.385Z,4.50
2022-11-18T13:26:33.290Z,4.40
2022-11-18T13:29:16.912Z,4.30
2022-11-18T13:31:55.556Z,4.40
2022-11-18T13:34:26.713Z,4.30
2022-11-18T13:36:56.395Z,4.20
2022-11-18T13:39:26.402Z,4.30
2022-11-18T13:42:03.457Z,4.40
2022-11-18T13:44:33.792Z,4.30
2022-11-18T13:47:10.898Z,4.20
2022-11-18T13:49:50.967Z,4.20
2022-11-18T13:52:23.756Z,4.00
2022-11-18T13:54:55.014Z,4.00
2022-11-18T13:57:28.257Z,4.10
2022-11-18T13:59:57.714Z,4.10
2022-11-18T14:02:26.338Z,3.90
2022-11-18T14:04:57.503Z,3.90
2022-11-18T14:07:32.356Z,3.70
2022-11-18T14:10:04.310Z,3.70
2022-11-18T14:12:35.347Z,3.70
2022-11-18T14:15:21.501Z,3.60
2022-11-18T14:17:55.973Z,3.60
2022-11-18T14:20:25.876Z,3.60
2022-11-18T14:22:57.524Z,3.60
2022-11-18T14:25:30.249Z,3.40
2022-11-18T14:28:13.252Z,3.50
2022-11-18T14:30:44.010Z,3.40
2022-11-18T14:33:20.699Z,3.40
2022-11-18T14:35:55.496Z,3.40
2022-11-18T14:38:40.561Z,3.20
2022-11-18T14:41:13.945Z,3.30
2022-11-18T14:43:46.101Z,3.40
2022-11-18T14:46:17.306Z,3.20
2022-11-18T14:48:46.077Z,3.20
2022-11-18T14:51:15.668Z,3.30
2022-11-18T14:53:44.742Z,3.20
2022-11-18T14:56:17.878Z,3.10
2022-11-18T14:58:47.388Z,3.20
2022-11-18T15:01:16.010Z,3.10
2022-11-18T15:03:44.432Z,2.90
2022-11-18T15:06:15.215Z,2.90
2022-11-18T15:08:44.042Z,2.80
2022-11-18T15:11:12.659Z,2.70
2022-11-18T15:13:41.405Z,2.60
2022-11-18T15:16:15.948Z,2.60
2022-11-18T15:18:46.646Z,2.60
2022-11-18T15:21:15.549Z,2.60
2022-11-18T15:23:43.969Z,2.50
2022-11-18T15:26:19.947Z,2.50
2022-11-18T15:28:48.475Z,2.50
2022-11-18T15:31:19.417Z,2.40
2022-11-18T15:33:48.519Z,2.50
2022-11-18T15:36:20.065Z,2.40
2022-11-18T15:38:49.205Z,2.50
2022-11-18T15:41:20.501Z,2.30
2022-11-18T15:43:49.463Z,2.20
2022-11-18T15:46:20.621Z,2.10
2022-11-18T15:48:52.516Z,2.10
2022-11-18T15:51:21.122Z,2.00
2022-11-18T15:53:49.300Z,2.00
2022-11-18T15:56:26.564Z,2.00
2022-11-18T15:58:56.846Z,2.00
2022-11-18T16:01:28.788Z,2.00
2022-11-18T16:03:57.411Z,2.00
2022-11-18T16:06:27.969Z,1.90
2022-11-18T16:08:59.928Z,2.00
2022-11-18T16:11:47.164Z,1.90
2022-11-18T16:14:18.708Z,1.70
2022-11-18T16:16:50.863Z,1.60
2022-11-18T16:19:20.997Z,1.50
2022-11-18T16:21:54.455Z,1.40
2022-11-18T16:24:25.706Z,1.40
2022-11-18T16:26:55.023Z,1.40
2022-11-18T16:29:24.208Z,1.30
2022-11-18T16:31:54.848Z,1.40
2022-11-18T16:34:25.095Z,1.20
2022-11-18T16:36:55.084Z,1.10
2022-11-18T16:39:25.771Z,1.10
2022-11-18T16:41:57.604Z,1.20
2022-11-18T16:44:28.014Z,1.10
2022-11-18T16:47:00.912Z,1.10
2022-11-18T16:49:29.432Z,0.90
2022-11-18T16:51:58.618Z,0.90
2022-11-18T16:54:31.785Z,0.90
2022-11-18T16:57:00.943Z,0.80
2022-11-18T16:59:31.818Z,0.80
2022-11-18T17:02:02.078Z,0.80
2022-11-18T17:04:31.193Z,0.90
2022-11-18T17:07:00.707Z,0.80
2022-11-18T17:09:29.621Z,0.70
2022-11-18T17:11:59.595Z,0.70
2022-11-18T17:14:27.821Z,0.80
2022-11-18T17:16:56.025Z,0.80
2022-11-18T17:19:26.235Z,0.60
2022-11-18T17:21:54.507Z,0.50
2022-11-18T17:24:24.518Z,0.50
2022-11-18T17:26:53.671Z,0.50
2022-11-18T17:29:22.267Z,0.40
2022-11-18T17:31:50.970Z,0.30
2022-11-18T17:34:19.810Z,0.30
2022-11-18T17:36:49.791Z,0.30
2022-11-18T17:39:20.723Z,0.20
2022-11-18T17:42:06.845Z,0.30
2022-11-18T17:44:35.623Z,0.30
2022-11-18T17:47:03.918Z,0.30
2022-11-18T17:49:32.334Z,0.30
2022-11-18T17:52:01.972Z,0.40
2022-11-18T17:54:30.379Z,0.30
2022-11-18T17:56:58.707Z,0.10
2022-11-18T17:59:27.116Z,0.00
2022-11-18T18:01:59.513Z,0.10
2022-11-18T18:04:29.235Z,0.00
2022-11-18T18:06:57.911Z,-0.10
2022-11-18T18:09:30.902Z,-0.10
2022-11-18T18:12:22.872Z,-0.20
2022-11-18T18:14:50.195Z,-0.10
2022-11-18T18:17:18.670Z,-0.20
2022-11-18T18:19:47.332Z,-0.30
2022-11-18T18:22:15.503Z,-0.30
2022-11-18T18:24:45.548Z,-0.20
2022-11-18T18:27:14.188Z,-0.30
2022-11-18T18:29:42.502Z,-0.40
2022-11-18T18:32:13.723Z,-0.30
2022-11-18T18:34:42.102Z,-0.30
2022-11-18T18:37:10.280Z,-0.30
2022-11-18T18:39:38.499Z,-0.40
2022-11-18T18:42:08.504Z,-0.40
2022-11-18T18:44:54.286Z,-0.40
2022-11-18T18:47:22.491Z,-0.50
2022-11-18T18:49:51.420Z,-0.60
2022-11-18T18:52:20.436Z,-0.60
2022-11-18T18:54:48.692Z,-0.70
2022-11-18T18:57:18.470Z,-0.60
2022-11-18T18:59:46.774Z,-0.50
2022-11-18T19:02:14.996Z,-0.60
2022-11-18T19:04:44.843Z,-0.60
2022-11-18T19:07:13.206Z,-0.80
2022-11-18T19:09:41.612Z,-0.90
2022-11-18T19:12:28.510Z,-0.90
2022-11-18T19:14:58.904Z,-1.10
2022-11-18T19:17:27.407Z,-1.10
2022-11-18T19:20:12.290Z,-1.20
2022-11-18T19:22:41.069Z,-1.20
2022-11-18T19:25:11.047Z,-1.20
2022-11-18T19:27:40.465Z,-1.20
2022-11-18T19:30:12.573Z,-1.10
2022-11-18T19:32:43.029Z,-1.20
2022-11-18T19:35:12.086Z,-1.20
2022-11-18T19:37:41.425Z,-1.00
2022-11-18T19:40:11.417Z,-1.00
2022-11-18T19:42:40.666Z,-1.00
2022-11-18T19:45:12.006Z,-1.00
2022-11-18T19:47:40.279Z,-1.10
2022-11-18T19:50:09.386Z,-1.10
2022-11-18T19:52:37.670Z,-1.10
2022-11-18T19:55:07.929Z,-1.10
2022-11-18T19:57:36.397Z,-1.10
2022-11-18T20:00:05.945Z,-1.00
2022-11-18T20:02:39.981Z,-1.00
2022-11-18T20:05:27.075Z,-1.10
2022-11-18T20:07:56.784Z,-1.20
2022-11-18T20:10:25.540Z,-1.10
2022-11-18T20:13:05.077Z,-1.20
2022-11-18T20:15:35.771Z,-1.30
2022-11-18T20:18:14.637Z,-1.30
2022-11-18T20:20:48.811Z,-1.30
2022-11-18T20:23:41.358Z,-1.40
2022-11-18T20:26:15.457Z,-1.40
2022-11-18T20:28:55.890Z,-1.40
2022-11-18T20:31:48.112Z,-1.40
2022-11-18T20:34:43.188Z,-1.40
2022-11-18T20:37:18.413Z,-1.50
2022-11-18T20:39:49.304Z,-1.40
2022-11-18T20:42:54.606Z,-1.40
2022-11-18T20:49:35.037Z,-1.30
2022-11-18T20:52:15.198Z,-1.40
2022-11-18T20:54:50.133Z,-1.30
2022-11-18T20:57:25.184Z,-1.40
2022-11-18T20:59:57.653Z,-1.30
2022-11-18T21:02:32.713Z,-1.40
2022-11-18T21:05:05.231Z,-1.50
2022-11-18T21:07:37.260Z,-1.50
2022-11-18T21:10:12.522Z,-1.40
2022-11-18T21:13:09.065Z,-1.50
2022-11-18T21:15:45.785Z,-1.40
2022-11-18T21:18:17.611Z,-1.40
2022-11-18T21:21:12.491Z,-1.30
2022-11-18T21:23:42.284Z,-1.40
2022-11-18T21:26:16.563Z,-1.40
2022-11-18T21:28:52.472Z,-1.50
2022-11-18T21:31:24.698Z,-1.40
2022-11-18T21:33:58.821Z,-1.50
2022-11-18T21:36:32.725Z,-1.50
2022-11-18T21:39:08.618Z,-1.50
2022-11-18T21:41:40.205Z,-1.50
2022-11-18T21:44:10.012Z,-1.50
2022-11-18T21:46:40.379Z,-1.60
2022-11-18T21:49:09.575Z,-1.60
2022-11-18T21:51:39.353Z,-1.60
2022-11-18T21:54:08.679Z,-1.60
2022-11-18T21:56:36.885Z,-1.60
2022-11-18T21:59:06.060Z,-1.50
2022-11-18T22:01:34.905Z,-1.60
2022-11-18T22:04:05.100Z,-1.50
2022-11-18T22:06:35.120Z,-1.50
2022-11-18T22:09:06.101Z,-1.50
2022-11-18T22:11:34.334Z,-1.50
2022-11-18T22:14:03.580Z,-1.50
2022-11-18T22:16:32.210Z,-1.50
2022-11-18T22:19:06.686Z,-1.50
2022-11-18T22:21:36.395Z,-1.60
2022-11-18T22:24:07.537Z,-1.60
2022-11-18T22:26:35.977Z,-1.60
2022-11-18T22:29:04.256Z,-1.60
2022-11-18T22:31:32.431Z,-1.60
2022-11-18T22:34:00.670Z,-1.60
2022-11-18T22:36:28.910Z,-1.50
2022-11-18T22:38:57.654Z,-1.50
2022-11-18T22:41:46.571Z,-1.50
2022-11-18T22:44:17.830Z,-1.50
2022-11-18T22:46:47.035Z,-1.50
2022-11-18T22:49:15.505Z,-1.50
2022-11-18T22:51:43.806Z,-1.50
2022-11-18T22:57:02.716Z,-1.40
2022-11-18T22:59:31.068Z,-1.30
2022-11-18T23:01:59.348Z,-1.40
2022-11-18T23:04:27.569Z,-1.30
2022-11-18T23:06:57.182Z,-1.30
2022-11-18T23:09:25.813Z,-1.40
2022-11-18T23:12:11.496Z,-1.40
2022-11-18T23:14:41.370Z,-1.50
2022-11-18T23:17:10.594Z,-1.60
2022-11-18T23:19:41.952Z,-1.60
2022-11-18T23:22:10.661Z,-1.50
2022-11-18T23:24:39.340Z,-1.50
2022-11-18T23:27:08.053Z,-1.60
2022-11-18T23:29:36.203Z,-1.60
2022-11-18T23:32:06.246Z,-1.50
2022-11-18T23:34:34.662Z,-1.60
2022-11-18T23:37:03.123Z,-1.60
2022-11-18T23:39:31.817Z,-1.60
2022-11-18T23:42:00.000Z,-1.60
2022-11-18T23:44:42.095Z,-1.60
2022-11-18T23:47:11.657Z,-1.60
2022-11-18T23:49:43.538Z,-1.70
2022-11-18T23:52:12.701Z,-1.60
2022-11-18T23:54:41.160Z,-1.70
2022-11-18T23:57:09.639Z,-1.60
2022-11-18T23:59:37.807Z,-1.60
